Time;durP1;ratioP1;P1;durP2;ratioP2;P2;SDS_P1;SDS_P2;PMS_P1;PMS_P2;Temp;Humidity;BMP_temperature;BMP_pressure;BME280_temperature;BME280_humidity;BME280_pressure;Samples;Min_cycle;Max_cycle;Signal;HPM_P1;HPM_P2
2022/05/25 00:01:05;;;;;;;3.08;0.22;;;10.20;99.90;;;;;;5054369;28;20025;-73
2022/05/25 00:03:32;;;;;;;1.83;0.60;;;10.30;99.90;;;;;;5053104;28;20079;-73
2022/05/25 00:06:04;;;;;;;4.45;0.30;;;10.30;99.90;;;;;;5053823;28;20070;-73
2022/05/25 00:08:30;;;;;;;1.35;0.38;;;10.20;99.90;;;;;;5055159;28;20022;-74
2022/05/25 00:10:56;;;;;;;1.50;0.20;;;10.20;99.90;;;;;;5054842;28;20383;-73
2022/05/25 00:13:23;;;;;;;2.22;0.43;;;10.20;99.90;;;;;;5053185;28;20025;-73
2022/05/25 00:15:49;;;;;;;3.63;0.85;;;10.10;99.90;;;;;;5054512;28;20017;-73
2022/05/25 00:18:14;;;;;;;2.72;0.47;;;10.10;99.90;;;;;;5054294;28;20025;-73
2022/05/25 00:20:40;;;;;;;0.60;0.10;;;10.10;99.90;;;;;;5057457;28;20549;-73
2022/05/25 00:23:06;;;;;;;1.48;0.30;;;10.00;99.90;;;;;;5058711;28;20021;-73
2022/05/25 00:25:35;;;;;;;3.20;0.50;;;10.00;99.90;;;;;;5057952;28;20075;-73
2022/05/25 00:28:03;;;;;;;1.77;0.63;;;10.00;99.90;;;;;;5058254;28;20021;-74
2022/05/25 00:30:29;;;;;;;1.05;0.40;;;10.00;99.90;;;;;;5058413;28;20095;-73
2022/05/25 00:32:56;;;;;;;1.25;0.32;;;9.90;99.90;;;;;;5058803;28;20083;-73
2022/05/25 00:35:23;;;;;;;2.10;0.50;;;9.90;99.90;;;;;;5058780;28;20024;-73
2022/05/25 00:37:49;;;;;;;2.72;0.40;;;9.80;99.90;;;;;;5058494;28;20479;-73
2022/05/25 00:40:19;;;;;;;1.02;0.35;;;9.80;99.90;;;;;;5058596;28;20025;-73
2022/05/25 00:42:45;;;;;;;0.85;0.50;;;9.80;99.90;;;;;;5058506;28;20021;-73
2022/05/25 00:45:12;;;;;;;1.38;0.65;;;9.80;99.90;;;;;;5058503;28;20384;-73
2022/05/25 00:47:40;;;;;;;2.22;0.25;;;9.70;99.90;;;;;;5058011;28;20088;-73
2022/05/25 00:50:08;;;;;;;3.63;0.43;;;9.70;99.90;;;;;;5058124;28;20074;-73
2022/05/25 00:52:33;;;;;;;2.75;0.88;;;9.70;99.90;;;;;;5058271;28;20087;-73
2022/05/25 00:55:02;;;;;;;4.78;0.50;;;9.70;99.90;;;;;;5057861;28;20024;-74
2022/05/25 00:57:46;;;;;;;1.50;0.70;;;9.70;99.90;;;;;;5057859;28;20035;-73
2022/05/25 01:00:18;;;;;;;1.92;0.75;;;9.60;99.90;;;;;;5058302;28;20025;-73
2022/05/25 01:02:47;;;;;;;3.25;1.02;;;9.60;99.90;;;;;;5057840;28;20365;-73
2022/05/25 01:05:14;;;;;;;;;;;9.60;99.90;;;;;;5059306;28;20475;-73
2022/05/25 01:07:49;;;;;;;4.10;0.60;;;9.60;99.90;;;;;;5057133;28;19912;-73
2022/05/25 01:10:37;;;;;;;1.80;0.88;;;9.50;99.90;;;;;;5058179;28;20100;-73
2022/05/25 01:13:33;;;;;;;1.83;1.00;;;9.50;99.90;;;;;;5056794;28;20032;-74
2022/05/25 01:16:30;;;;;;;1.52;0.80;;;9.50;99.90;;;;;;5058000;28;20486;-73
2022/05/25 01:18:59;;;;;;;2.85;1.10;;;9.50;99.90;;;;;;5056273;28;20029;-73
2022/05/25 01:21:31;;;;;;;3.15;1.02;;;9.40;99.90;;;;;;5056097;28;20029;-73
2022/05/25 01:24:18;;;;;;;1.77;0.80;;;9.40;99.90;;;;;;5057004;28;20025;-73
2022/05/25 01:26:57;;;;;;;2.58;1.10;;;9.40;99.90;;;;;;5056131;28;20025;-73
2022/05/25 01:29:23;;;;;;;5.88;1.67;;;9.30;99.90;;;;;;5057855;28;20044;-73
2022/05/25 01:32:01;;;;;;;1.88;1.15;;;9.30;99.90;;;;;;5055077;28;20427;-73
2022/05/25 01:34:36;;;;;;;2.65;1.25;;;9.20;99.90;;;;;;5056871;28;20502;-73
2022/05/25 01:37:41;;;;;;;3.35;0.95;;;9.20;99.90;;;;;;5056908;28;20033;-73
2022/05/25 01:40:36;;;;;;;3.70;1.85;;;9.20;99.90;;;;;;5056946;28;20036;-73
2022/05/25 01:43:21;;;;;;;3.13;1.70;;;9.20;99.90;;;;;;5055761;28;20025;-73
2022/05/25 01:45:51;;;;;;;4.90;1.58;;;9.10;99.90;;;;;;5057042;28;20109;-73
2022/05/25 01:48:19;;;;;;;2.28;1.10;;;9.10;99.90;;;;;;5056022;28;20365;-73
2022/05/25 01:50:55;;;;;;;4.07;1.55;;;9.10;99.90;;;;;;5057276;28;20476;-73
2022/05/25 01:53:27;;;;;;;6.55;1.50;;;9.10;99.90;;;;;;5055589;28;20032;-73
2022/05/25 01:55:58;;;;;;;2.65;1.58;;;9.00;99.90;;;;;;5057518;28;20480;-73
2022/05/25 01:58:26;;;;;;;4.22;1.67;;;9.00;99.90;;;;;;5056379;28;20036;-73
2022/05/25 02:00:57;;;;;;;6.40;1.58;;;9.00;99.90;;;;;;5056689;28;20071;-73
2022/05/25 02:06:26;;;;;;;3.50;1.80;;;9.00;99.90;;;;;;5056883;28;20036;-73
2022/05/25 02:09:30;;;;;;;3.17;1.73;;;9.00;99.90;;;;;;5057500;28;20021;-73
2022/05/25 02:12:10;;;;;;;3.92;1.77;;;9.00;99.90;;;;;;5052825;28;20029;-74
2022/05/25 02:14:36;;;;;;;3.00;1.90;;;9.00;99.90;;;;;;5057359;28;20488;-74
2022/05/25 02:17:26;;;;;;;4.75;1.88;;;9.00;99.90;;;;;;5055792;28;20032;-74
2022/05/25 02:20:10;;;;;;;6.55;1.65;;;9.00;99.90;;;;;;5056837;28;20033;-74
2022/05/25 02:22:47;;;;;;;3.70;1.80;;;9.00;99.90;;;;;;5055499;28;20025;-74
2022/05/25 02:25:15;;;;;;;3.00;1.73;;;8.90;99.90;;;;;;5056939;28;20029;-73
2022/05/25 02:27:55;;;;;;;6.40;1.90;;;8.90;99.90;;;;;;5056692;28;20104;-73
2022/05/25 02:30:24;;;;;;;7.72;1.88;;;8.80;99.90;;;;;;5056628;28;20167;-73
2022/05/25 02:32:56;;;;;;;5.63;1.25;;;8.80;99.90;;;;;;5056559;28;20045;-73
2022/05/25 02:35:23;;;;;;;4.40;1.90;;;8.80;99.90;;;;;;5056870;28;20483;-74
2022/05/25 02:37:51;;;;;;;5.60;1.80;;;8.70;99.90;;;;;;5056436;28;20021;-74
2022/05/25 02:40:17;;;;;;;5.53;1.50;;;8.70;99.90;;;;;;5056429;28;20535;-74
2022/05/25 02:42:43;;;;;;;3.25;1.77;;;8.70;99.90;;;;;;5055764;28;20021;-74
2022/05/25 02:45:10;;;;;;;7.65;1.92;;;8.70;99.90;;;;;;5055523;28;20108;-74
2022/05/25 02:47:37;;;;;;;3.28;1.65;;;8.70;99.90;;;;;;5055551;28;20032;-74
2022/05/25 02:50:04;;;;;;;7.43;2.28;;;8.70;99.90;;;;;;5056422;28;20021;-74
2022/05/25 02:52:29;;;;;;;4.78;2.33;;;8.70;99.90;;;;;;5054829;28;20018;-74
2022/05/25 02:54:55;;;;;;;5.28;1.65;;;8.80;99.90;;;;;;5055552;28;20135;-74
2022/05/25 02:57:20;;;;;;;4.13;2.20;;;8.80;99.90;;;;;;5055162;28;20029;-75
2022/05/25 02:59:46;;;;;;;3.80;1.98;;;8.80;99.90;;;;;;5056223;28;20021;-74
2022/05/25 03:02:13;;;;;;;5.57;2.40;;;8.90;99.90;;;;;;5056384;28;20036;-74
2022/05/25 03:04:42;;;;;;;5.80;2.33;;;8.70;99.90;;;;;;5055966;28;20029;-74
2022/05/25 03:07:08;;;;;;;3.42;2.13;;;8.80;99.90;;;;;;5055700;28;20423;-74
2022/05/25 03:09:36;;;;;;;4.78;2.80;;;8.70;99.90;;;;;;5055455;28;20082;-74
2022/05/25 03:12:03;;;;;;;4.88;2.88;;;8.70;99.90;;;;;;5055562;28;20024;-74
2022/05/25 03:14:29;;;;;;;7.72;2.60;;;8.70;99.90;;;;;;5054216;28;20125;-74
2022/05/25 03:16:55;;;;;;;4.22;1.77;;;8.70;99.90;;;;;;5055213;28;20028;-74
2022/05/25 03:19:21;;;;;;;5.50;2.40;;;8.70;99.90;;;;;;5054325;28;20028;-74
2022/05/25 03:21:46;;;;;;;7.32;2.33;;;8.60;99.90;;;;;;5055438;28;20025;-73
2022/05/25 03:24:12;;;;;;;4.78;2.25;;;8.70;99.90;;;;;;5054898;28;20044;-74
2022/05/25 03:26:38;;;;;;;5.82;2.42;;;8.70;99.90;;;;;;5055717;28;20423;-74
2022/05/25 03:29:04;;;;;;;6.30;2.85;;;8.70;99.90;;;;;;5055012;28;20021;-75
2022/05/25 03:31:30;;;;;;;4.80;2.40;;;8.70;99.90;;;;;;5054142;28;20032;-73
2022/05/25 03:33:55;;;;;;;6.70;2.67;;;8.70;99.90;;;;;;5053223;28;20063;-74
2022/05/25 03:36:22;;;;;;;7.50;3.08;;;8.70;99.90;;;;;;5054989;28;20033;-73
2022/05/25 03:38:48;;;;;;;5.97;2.13;;;8.80;99.90;;;;;;5053824;28;20519;-74
2022/05/25 03:41:17;;;;;;;5.43;3.10;;;8.70;99.90;;;;;;5055348;28;20024;-74
2022/05/25 03:43:44;;;;;;;4.85;2.58;;;8.80;99.90;;;;;;5055449;28;20029;-76
2022/05/25 03:46:10;;;;;;;6.70;3.50;;;8.80;99.90;;;;;;5055531;28;20104;-74
2022/05/25 03:48:36;;;;;;;4.93;2.63;;;8.80;99.90;;;;;;5055624;28;20021;-74
2022/05/25 03:51:01;;;;;;;7.00;2.60;;;8.80;99.90;;;;;;5055440;28;20096;-74
2022/05/25 03:53:27;;;;;;;7.15;3.40;;;8.80;99.90;;;;;;5053057;28;20021;-75
2022/05/25 03:55:53;;;;;;;6.55;3.05;;;8.80;99.90;;;;;;5054309;28;20025;-73
2022/05/25 03:58:18;;;;;;;6.10;2.95;;;8.80;99.90;;;;;;5055326;28;20052;-74
2022/05/25 04:00:44;;;;;;;8.95;2.85;;;8.80;99.90;;;;;;5053653;28;20514;-74
2022/05/25 04:03:13;;;;;;;8.38;3.33;;;8.90;99.90;;;;;;5054235;28;20055;-74
2022/05/25 04:05:40;;;;;;;6.00;2.55;;;8.90;99.90;;;;;;5054167;28;20434;-74
2022/05/25 04:08:05;;;;;;;9.38;3.30;;;9.00;99.90;;;;;;5054390;28;20013;-74
2022/05/25 04:10:31;;;;;;;7.85;3.15;;;9.10;99.90;;;;;;5053953;28;20052;-73
2022/05/25 04:12:58;;;;;;;7.53;2.90;;;9.20;99.90;;;;;;5055265;28;20029;-74
2022/05/25 04:15:26;;;;;;;6.40;3.03;;;9.30;99.90;;;;;;5052937;28;20543;-74
2022/05/25 04:17:53;;;;;;;8.33;3.93;;;9.30;99.90;;;;;;5054256;28;20028;-74
2022/05/25 04:20:20;;;;;;;7.88;3.28;;;9.40;99.90;;;;;;5053114;28;20163;-75
2022/05/25 04:22:50;;;;;;;7.40;3.05;;;9.60;99.90;;;;;;5054070;28;20032;-75
2022/05/25 04:25:18;;;;;;;6.43;2.60;;;9.70;99.90;;;;;;5052740;28;20028;-74
2022/05/25 04:27:44;;;;;;;8.30;3.10;;;9.80;99.90;;;;;;5054459;28;20118;-74
2022/05/25 04:30:15;;;;;;;9.07;2.80;;;9.90;99.90;;;;;;5054125;28;20017;-74
2022/05/25 04:32:40;;;;;;;5.22;2.75;;;10.00;99.90;;;;;;5054334;28;20033;-74
2022/05/25 04:35:06;;;;;;;3.78;2.53;;;10.10;99.90;;;;;;5054375;28;20048;-74
2022/05/25 04:40:25;;;;;;;5.90;2.97;;;10.20;99.90;;;;;;5054584;28;20040;-74
2022/05/25 04:42:52;;;;;;;7.65;3.10;;;10.30;99.90;;;;;;5052987;28;20202;-74
2022/05/25 04:45:18;;;;;;;7.00;1.90;;;10.40;99.90;;;;;;5053675;28;20032;-74
2022/05/25 04:47:44;;;;;;;8.80;2.70;;;10.50;99.90;;;;;;5053886;28;20536;-75
2022/05/25 04:50:12;;;;;;;8.05;2.55;;;10.60;99.90;;;;;;5053728;28;20021;-75
2022/05/25 04:52:38;;;;;;;10.70;3.58;;;10.70;99.90;;;;;;5054283;28;20017;-74
2022/05/25 04:55:06;;;;;;;8.60;2.67;;;10.80;99.90;;;;;;5052353;28;20029;-74
2022/05/25 04:57:31;;;;;;;5.28;2.42;;;10.90;99.90;;;;;;5052457;28;20032;-74
2022/05/25 05:00:00;;;;;;;11.63;3.78;;;11.00;99.90;;;;;;5053672;28;20396;-75
2022/05/25 05:02:27;;;;;;;9.32;2.50;;;11.10;99.90;;;;;;5053550;28;20029;-74
2022/05/25 05:04:53;;;;;;;11.15;3.42;;;11.10;99.90;;;;;;5053628;28;20450;-74
2022/05/25 05:07:27;;;;;;;9.75;3.13;;;11.30;99.90;;;;;;5055467;28;20025;-75
2022/05/25 05:09:53;;;;;;;8.98;2.67;;;11.40;99.90;;;;;;5056685;28;20021;-74
2022/05/25 05:12:18;;;;;;;10.25;3.85;;;11.50;99.90;;;;;;5056200;28;20021;-74
2022/05/25 05:14:44;;;;;;;8.82;3.30;;;11.60;99.90;;;;;;5055965;28;20025;-74
2022/05/25 05:17:10;;;;;;;7.57;3.33;;;11.60;99.90;;;;;;5054830;28;20053;-74
2022/05/25 05:19:35;;;;;;;7.30;3.40;;;11.70;99.90;;;;;;5056758;28;20025;-74
2022/05/25 05:22:01;;;;;;;7.50;2.75;;;11.70;99.90;;;;;;5054636;28;20507;-74
2022/05/25 05:24:29;;;;;;;8.20;3.67;;;11.70;99.90;;;;;;5055766;28;20112;-75
2022/05/25 05:26:56;;;;;;;7.40;3.20;;;11.80;99.90;;;;;;5055751;28;20025;-74
2022/05/25 05:29:24;;;;;;;10.90;3.40;;;11.90;99.90;;;;;;5055840;28;20014;-73
2022/05/25 05:31:50;;;;;;;9.45;3.83;;;12.00;99.90;;;;;;5055630;28;20379;-73
2022/05/25 05:34:16;;;;;;;8.73;3.25;;;12.10;99.90;;;;;;5055731;28;20507;-73
2022/05/25 05:36:47;;;;;;;12.68;4.38;;;12.10;99.90;;;;;;5055825;28;20025;-73
2022/05/25 05:39:15;;;;;;;8.30;3.75;;;12.20;99.90;;;;;;5054418;28;20033;-73
2022/05/25 05:41:52;;;;;;;8.65;4.15;;;12.70;99.90;;;;;;5054459;28;20037;-73
2022/05/25 05:44:22;;;;;;;9.98;3.78;;;12.40;99.90;;;;;;5055589;28;20021;-73
2022/05/25 05:46:51;;;;;;;12.68;3.45;;;12.60;99.90;;;;;;5056015;28;20463;-73
2022/05/25 05:49:17;;;;;;;12.07;3.85;;;12.60;99.90;;;;;;5055742;28;20025;-73
2022/05/25 05:51:43;;;;;;;9.63;3.50;;;12.70;99.90;;;;;;5055547;28;20464;-73
2022/05/25 05:54:10;;;;;;;7.15;3.60;;;12.80;99.90;;;;;;5053913;28;20075;-73
2022/05/25 05:56:35;;;;;;;12.13;3.65;;;12.90;99.90;;;;;;5054116;28;20443;-74
2022/05/25 05:59:03;;;;;;;8.85;3.90;;;13.00;99.90;;;;;;5055322;28;20060;-75
2022/05/25 06:01:28;;;;;;;9.65;4.00;;;13.00;99.90;;;;;;5053794;28;20017;-74
2022/05/25 06:03:54;;;;;;;8.50;3.38;;;13.00;99.90;;;;;;5055233;28;20056;-74
2022/05/25 06:06:20;;;;;;;9.43;4.10;;;13.00;99.90;;;;;;5055227;28;20025;-74
2022/05/25 06:08:49;;;;;;;14.00;4.13;;;13.10;99.90;;;;;;5054927;28;20422;-74
2022/05/25 06:11:19;;;;;;;8.25;3.83;;;13.20;99.90;;;;;;5053835;28;20025;-74
2022/05/25 06:13:45;;;;;;;5.43;3.72;;;13.20;99.90;;;;;;5054994;28;20070;-74
2022/05/25 06:21:38;;;;;;;12.15;4.45;;;13.50;99.90;;;;;;5055124;28;20071;-74
2022/05/25 06:24:05;;;;;;;8.68;3.30;;;13.60;99.90;;;;;;5054818;28;20115;-74
2022/05/25 06:26:31;;;;;;;7.97;3.97;;;13.60;99.90;;;;;;5055239;28;20425;-74
2022/05/25 06:29:01;;;;;;;8.55;3.85;;;13.80;99.90;;;;;;5054661;28;20117;-74
2022/05/25 06:31:28;;;;;;;7.53;3.30;;;13.80;99.90;;;;;;5064770;22;20514;-77
2022/05/25 06:33:53;;;;;;;8.18;3.33;;;13.90;99.90;;;;;;5035554;28;20018;-77
2022/05/25 06:36:24;;;;;;;7.55;3.00;;;14.10;99.90;;;;;;5035806;28;20025;-77
2022/05/25 06:38:51;;;;;;;7.47;3.45;;;14.10;99.90;;;;;;5035454;28;20017;-77
2022/05/25 06:41:17;;;;;;;14.65;4.68;;;14.10;99.90;;;;;;5035138;28;20021;-77
2022/05/25 06:43:43;;;;;;;9.10;3.80;;;14.20;99.90;;;;;;5033625;28;20033;-74
2022/05/25 06:46:11;;;;;;;10.23;4.18;;;14.80;99.90;;;;;;5033164;28;20357;-73
2022/05/25 06:48:37;;;;;;;10.48;4.40;;;14.70;99.90;;;;;;5034494;28;20035;-73
2022/05/25 06:51:14;;;;;;;10.48;4.38;;;14.40;99.90;;;;;;5033310;28;20037;-73
2022/05/25 06:53:40;;;;;;;12.63;5.07;;;14.40;99.90;;;;;;5033361;28;20022;-73
2022/05/25 06:56:05;;;;;;;13.05;5.38;;;14.50;99.90;;;;;;5033430;28;20472;-73
2022/05/25 06:58:32;;;;;;;12.07;4.80;;;14.60;99.90;;;;;;5034532;28;20036;-73
2022/05/25 07:00:57;;;;;;;10.85;4.43;;;14.70;99.90;;;;;;5034768;28;20018;-73
2022/05/25 07:03:23;;;;;;;14.40;6.15;;;14.60;99.90;;;;;;5035033;28;20028;-73
2022/05/25 07:05:49;;;;;;;11.85;5.32;;;14.60;99.90;;;;;;5034519;28;20147;-73
2022/05/25 07:08:14;;;;;;;12.30;5.78;;;14.40;99.90;;;;;;5034467;28;20022;-74
2022/05/25 07:10:45;;;;;;;10.13;6.07;;;14.30;99.90;;;;;;5033601;28;20017;-73
2022/05/25 07:13:14;;;;;;;15.40;6.82;;;14.30;99.90;;;;;;5034016;28;20548;-73
2022/05/25 07:15:40;;;;;;;10.32;5.82;;;14.20;99.90;;;;;;5034420;28;20075;-73
2022/05/25 07:18:06;;;;;;;15.80;5.90;;;14.00;99.90;;;;;;5034656;28;20465;-73
2022/05/25 07:20:32;;;;;;;11.80;6.55;;;14.00;99.90;;;;;;5033898;28;20033;-73
2022/05/25 07:22:57;;;;;;;12.52;6.70;;;14.00;99.90;;;;;;5032605;28;20029;-73
2022/05/25 07:25:23;;;;;;;12.23;6.38;;;14.20;99.90;;;;;;5033922;28;20025;-73
2022/05/25 07:27:48;;;;;;;13.02;6.70;;;14.50;99.90;;;;;;5033896;28;20018;-73
2022/05/25 07:30:16;;;;;;;13.70;6.18;;;14.60;99.90;;;;;;5033272;28;20026;-73
2022/05/25 07:32:42;;;;;;;16.38;6.18;;;14.70;99.90;;;;;;5033589;28;20471;-73
2022/05/25 07:35:10;;;;;;;12.75;6.88;;;14.60;99.90;;;;;;5033622;28;20038;-73
2022/05/25 07:37:39;;;;;;;10.30;5.57;;;14.50;99.90;;;;;;5034021;28;20052;-73
2022/05/25 07:40:05;;;;;;;7.78;5.28;;;14.50;99.90;;;;;;5033621;28;20112;-73
2022/05/25 07:42:31;;;;;;;14.65;6.40;;;14.50;99.90;;;;;;5033528;28;20033;-73
2022/05/25 07:44:59;;;;;;;11.10;5.93;;;14.60;99.90;;;;;;5032055;28;20021;-73
2022/05/25 07:47:27;;;;;;;10.63;6.23;;;14.70;99.90;;;;;;5033751;28;20432;-73
2022/05/25 07:49:52;;;;;;;10.10;6.32;;;14.80;99.90;;;;;;5033727;28;20040;-73
2022/05/25 07:52:20;;;;;;;11.40;6.03;;;14.90;99.90;;;;;;5033378;28;20017;-73
2022/05/25 07:54:47;;;;;;;11.73;5.60;;;15.00;99.90;;;;;;5033601;28;20056;-73
2022/05/25 07:57:13;;;;;;;14.02;7.18;;;15.20;99.90;;;;;;5033398;28;20017;-73
2022/05/25 07:59:39;;;;;;;11.30;6.10;;;15.40;99.90;;;;;;5033559;28;20029;-74
2022/05/25 08:07:55;;;;;;;12.90;5.70;;;15.70;99.90;;;;;;5034041;28;20163;-74
2022/05/25 08:10:24;;;;;;;13.48;6.82;;;15.80;99.90;;;;;;5034838;28;20041;-74
2022/05/25 08:12:53;;;;;;;14.98;6.90;;;15.90;99.90;;;;;;5033753;28;20022;-74
2022/05/25 08:15:18;;;;;;;12.30;6.07;;;15.80;99.90;;;;;;5033992;28;20029;-74
2022/05/25 08:17:44;;;;;;;14.10;7.97;;;15.80;99.90;;;;;;5034731;28;20084;-74
2022/05/25 08:20:11;;;;;;;15.82;5.97;;;15.90;99.90;;;;;;5034528;28;20021;-74
2022/05/25 08:22:37;;;;;;;13.73;6.18;;;16.00;99.90;;;;;;5034954;28;20030;-74
2022/05/25 08:25:04;;;;;;;14.40;6.55;;;16.00;99.90;;;;;;5034432;28;20026;-74
2022/05/25 08:27:31;;;;;;;14.90;6.10;;;15.90;99.90;;;;;;5034955;28;20033;-74
2022/05/25 08:29:57;;;;;;;12.77;7.50;;;15.90;99.90;;;;;;5034943;28;20472;-74
2022/05/25 08:32:23;;;;;;;13.02;5.88;;;15.90;99.90;;;;;;5034736;28;20124;-74
2022/05/25 08:34:48;;;;;;;11.73;5.60;;;16.30;99.90;;;;;;5034675;28;20094;-74
2022/05/25 08:37:14;;;;;;;8.48;4.75;;;16.40;99.90;;;;;;5035154;28;20075;-74
2022/05/25 08:39:40;;;;;;;10.07;5.15;;;16.50;99.90;;;;;;5034510;28;20100;-74
2022/05/25 08:42:12;;;;;;;13.73;5.85;;;16.60;99.90;;;;;;5036537;28;20024;-74
2022/05/25 08:44:41;;;;;;;7.93;4.80;;;16.80;99.90;;;;;;5038239;28;20022;-74
2022/05/25 08:47:08;;;;;;;9.55;5.43;;;16.70;99.90;;;;;;5038273;28;20021;-74
2022/05/25 08:49:35;;;;;;;14.10;4.30;;;16.70;99.90;;;;;;5038189;28;20042;-75
2022/05/25 08:52:04;;;;;;;8.63;4.82;;;16.90;99.90;;;;;;5038484;28;20064;-76
2022/05/25 08:54:31;;;;;;;7.47;4.22;;;16.70;99.90;;;;;;5037408;28;20100;-78
2022/05/25 08:57:05;;;;;;;6.40;3.47;;;16.70;99.90;;;;;;5036579;28;20048;-78
2022/05/25 08:59:41;;;;;;;7.80;3.88;;;16.60;99.90;;;;;;5038910;28;20034;-76
2022/05/25 09:02:36;;;;;;;6.18;3.50;;;16.60;99.90;;;;;;5038643;28;20457;-76
2022/05/25 09:05:24;;;;;;;8.63;3.55;;;16.60;99.90;;;;;;5037867;28;20060;-76
2022/05/25 09:08:21;;;;;;;6.47;3.25;;;16.80;99.90;;;;;;5037693;28;20179;-76
2022/05/25 09:11:12;;;;;;;4.63;3.13;;;17.20;99.90;;;;;;5037598;28;20022;-76
2022/05/25 09:13:44;;;;;;;5.10;2.80;;;17.30;99.90;;;;;;5036149;28;20032;-76
2022/05/25 09:16:16;;;;;;;6.88;3.63;;;17.30;99.90;;;;;;5037918;28;20101;-75
2022/05/25 09:18:59;;;;;;;6.18;3.15;;;17.20;99.90;;;;;;5036076;28;20500;-75
2022/05/25 09:21:40;;;;;;;5.03;3.28;;;17.10;99.90;;;;;;5038704;28;20025;-75
2022/05/25 09:24:14;;;;;;;9.88;3.30;;;17.00;99.90;;;;;;5037314;28;20061;-76
2022/05/25 09:26:43;;;;;;;9.18;2.63;;;17.10;99.90;;;;;;5075103;22;20114;-75
2022/05/25 09:29:10;;;;;;;2.40;1.52;;;17.20;99.90;;;;;;5036812;28;20420;-75
2022/05/25 09:32:05;;;;;;;3.97;1.45;;;17.30;99.90;;;;;;5037990;28;20029;-74
2022/05/25 09:34:51;;;;;;;2.95;0.57;;;17.20;99.90;;;;;;5036237;28;20036;-74
2022/05/25 09:37:34;;;;;;;3.08;1.35;;;17.30;99.90;;;;;;5028361;28;20038;-75
2022/05/25 09:40:18;;;;;;;1.67;0.85;;;17.10;99.90;;;;;;5036222;28;20067;-75
2022/05/25 09:42:50;;;;;;;2.78;0.52;;;17.10;99.90;;;;;;5034592;28;20026;-74
2022/05/25 09:45:17;;;;;;;3.50;0.30;;;17.30;99.90;;;;;;5035891;28;20398;-76
2022/05/25 09:47:46;;;;;;;0.45;0.30;;;17.40;99.90;;;;;;5036418;28;20488;-74
2022/05/25 09:50:28;;;;;;;4.25;0.40;;;17.30;99.90;;;;;;5035815;28;20021;-74
2022/05/25 09:52:54;;;;;;;1.63;0.00;;;17.50;99.90;;;;;;5035021;28;20033;-74
2022/05/25 09:55:29;;;;;;;0.25;0.00;;;17.50;99.90;;;;;;5035099;28;20017;-75
2022/05/25 09:58:07;;;;;;;0.00;0.00;;;17.60;99.90;;;;;;5037023;28;20044;-74
2022/05/25 10:00:33;;;;;;;1.08;0.20;;;17.70;99.60;;;;;;5036452;28;20025;-74
2022/05/25 10:03:10;;;;;;;1.05;0.10;;;17.90;99.90;;;;;;5035069;28;20034;-74
2022/05/25 10:05:50;;;;;;;1.52;0.05;;;18.00;98.40;;;;;;5036705;28;20028;-74
2022/05/25 10:08:31;;;;;;;0.60;0.00;;;18.10;97.50;;;;;;5036008;28;20089;-74
2022/05/25 10:11:27;;;;;;;2.63;0.55;;;18.50;97.40;;;;;;5036223;28;20147;-75
2022/05/25 10:13:55;;;;;;;0.93;0.00;;;18.60;95.10;;;;;;5034699;28;20029;-75
2022/05/25 10:16:24;;;;;;;3.20;0.03;;;18.60;99.10;;;;;;5035843;28;20026;-74
2022/05/25 10:18:50;;;;;;;3.90;0.40;;;18.60;93.90;;;;;;5034479;28;20032;-74
2022/05/25 10:21:28;;;;;;;0.20;0.00;;;18.70;94.10;;;;;;5035978;28;20013;-75
2022/05/25 10:23:54;;;;;;;0.30;0.00;;;18.60;95.60;;;;;;5035427;28;20072;-74
2022/05/25 10:26:43;;;;;;;0.95;0.13;;;18.80;96.40;;;;;;5034453;28;20037;-74
2022/05/25 10:29:11;;;;;;;3.75;0.00;;;19.10;97.30;;;;;;5034664;28;20021;-75
2022/05/25 10:37:39;;;;;;;0.30;0.00;;;18.90;92.90;;;;;;5035350;28;20037;-75
2022/05/25 10:40:07;;;;;;;0.45;0.00;;;19.10;90.70;;;;;;5036036;28;20045;-75
2022/05/25 10:42:37;;;;;;;2.42;0.17;;;19.20;90.40;;;;;;5035037;28;20164;-75
2022/05/25 10:45:21;;;;;;;0.00;0.00;;;18.90;86.10;;;;;;5035131;28;20026;-75
2022/05/25 10:47:54;;;;;;;1.15;0.00;;;18.50;88.30;;;;;;5036751;28;20021;-75
2022/05/25 10:50:45;;;;;;;6.22;0.43;;;18.10;93.80;;;;;;5035599;28;20025;-75
2022/05/25 10:53:24;;;;;;;1.13;0.00;;;18.30;90.80;;;;;;5035800;28;20096;-75
2022/05/25 10:56:08;;;;;;;2.50;0.35;;;18.20;88.70;;;;;;5034235;28;20017;-75
2022/05/25 10:58:48;;;;;;;2.10;0.00;;;18.20;90.70;;;;;;5035482;28;20091;-75
2022/05/25 11:01:38;;;;;;;4.95;0.05;;;18.60;97.30;;;;;;5035570;28;20067;-75
2022/05/25 11:04:34;;;;;;;1.45;0.00;;;18.80;89.20;;;;;;5033160;28;20030;-75
2022/05/25 11:07:37;;;;;;;0.10;0.05;;;18.70;89.00;;;;;;5033881;28;20030;-75
2022/05/25 11:10:08;;;;;;;0.50;0.00;;;18.40;88.00;;;;;;5033632;28;20022;-75
2022/05/25 11:12:40;;;;;;;0.55;0.10;;;18.30;92.30;;;;;;5034607;28;20540;-75
2022/05/25 11:15:28;;;;;;;1.77;0.00;;;18.60;90.80;;;;;;5034887;28;20067;-75
2022/05/25 11:18:13;;;;;;;;;;;18.90;88.50;;;;;;5036250;28;20030;-74
2022/05/25 11:21:03;;;;;;;0.68;0.00;;;19.10;89.30;;;;;;5034833;28;19954;-75
2022/05/25 11:24:03;;;;;;;2.13;0.08;;;19.10;88.90;;;;;;5033337;28;20037;-75
2022/05/25 11:26:34;;;;;;;0.65;0.00;;;19.20;86.70;;;;;;5032290;28;20037;-75
2022/05/25 11:29:20;;;;;;;4.70;0.10;;;19.00;78.70;;;;;;5033826;28;20030;-75
2022/05/25 11:32:01;;;;;;;0.10;0.00;;;19.00;83.70;;;;;;5034039;28;20026;-75
2022/05/25 11:34:48;;;;;;;2.38;0.00;;;18.60;77.00;;;;;;5034075;28;20021;-75
2022/05/25 11:37:48;;;;;;;3.05;0.00;;;18.50;77.00;;;;;;5032404;28;20032;-75
2022/05/25 11:40:19;;;;;;;16.25;1.27;;;18.50;85.40;;;;;;5027642;28;20033;-74
2022/05/25 11:42:54;;;;;;;0.05;0.00;;;18.50;77.40;;;;;;5032755;28;20499;-75
2022/05/25 11:46:02;;;;;;;1.77;0.00;;;18.80;84.90;;;;;;5032728;28;20026;-75
2022/05/25 11:48:39;;;;;;;;;;;19.00;77.20;;;;;;5024793;28;20060;-75
2022/05/25 11:51:15;;;;;;;1.15;0.00;;;19.10;76.80;;;;;;5033660;28;19909;-75
2022/05/25 11:53:58;;;;;;;3.83;0.30;;;19.20;77.30;;;;;;5033724;28;20553;-76
2022/05/25 11:56:28;;;;;;;4.20;0.00;;;19.30;78.90;;;;;;5033563;28;20025;-77
2022/05/25 11:59:31;;;;;;;1.55;0.00;;;19.30;74.40;;;;;;5033504;28;20084;-75
2022/05/25 12:02:31;;;;;;;1.55;0.20;;;19.60;78.40;;;;;;5033752;28;20033;-74
2022/05/25 12:05:19;;;;;;;3.67;0.00;;;20.00;74.50;;;;;;5014546;28;20454;-75
2022/05/25 12:07:48;;;;;;;;;;;20.10;66.80;;;;;;5033662;28;20041;-75
2022/05/25 12:10:19;;;;;;;;;;;20.00;69.40;;;;;;5034116;28;20316;-74
2022/05/25 12:13:06;;;;;;;1.83;0.25;;;20.10;71.50;;;;;;5031884;28;20367;-74
2022/05/25 12:15:50;;;;;;;2.23;0.00;;;20.20;74.50;;;;;;5034965;28;20052;-75
2022/05/25 12:18:25;;;;;;;0.88;0.00;;;19.90;70.40;;;;;;5037732;28;20483;-75
2022/05/25 12:21:03;;;;;;;2.35;0.00;;;19.80;72.40;;;;;;5037723;28;20120;-75
2022/05/25 12:23:51;;;;;;;0.10;0.00;;;19.50;72.40;;;;;;5035875;28;20029;-75
2022/05/25 12:26:25;;;;;;;0.55;0.10;;;19.00;71.90;;;;;;5037302;28;20069;-75
2022/05/25 12:28:53;;;;;;;1.05;0.10;;;18.70;74.00;;;;;;5036148;28;20017;-75
2022/05/25 12:31:28;;;;;;;3.17;0.00;;;18.30;78.60;;;;;;5035838;28;20056;-75
2022/05/25 12:33:54;;;;;;;1.50;0.00;;;18.10;80.30;;;;;;5037060;28;20022;-75
2022/05/25 12:36:21;;;;;;;1.08;0.08;;;18.20;84.40;;;;;;5037049;28;20388;-75
2022/05/25 12:38:49;;;;;;;2.67;0.00;;;18.40;82.80;;;;;;5037062;28;20096;-75
2022/05/25 12:41:21;;;;;;;3.65;0.30;;;18.60;82.50;;;;;;5037680;28;20053;-74
2022/05/25 12:43:46;;;;;;;1.17;0.00;;;19.00;81.30;;;;;;5037374;28;20025;-75
2022/05/25 12:49:02;;;;;;;2.45;0.00;;;19.20;77.90;;;;;;5038415;28;20095;-74
2022/05/25 12:51:43;;;;;;;4.30;0.57;;;19.20;79.30;;;;;;5036273;28;20021;-74
2022/05/25 12:54:24;;;;;;;0.50;0.10;;;19.20;80.50;;;;;;5037300;28;20439;-74
2022/05/25 12:56:52;;;;;;;2.47;0.10;;;19.50;87.30;;;;;;5038042;28;20469;-74
2022/05/25 12:59:37;;;;;;;5.28;0.10;;;19.80;83.10;;;;;;5037446;28;20014;-74
2022/05/25 13:02:12;;;;;;;1.33;0.10;;;19.90;85.90;;;;;;5037541;28;20024;-74
2022/05/25 13:04:44;;;;;;;1.67;0.00;;;20.10;79.80;;;;;;5037627;28;20391;-74
2022/05/25 13:07:39;;;;;;;1.42;0.10;;;20.00;77.90;;;;;;5038349;28;20017;-74
2022/05/25 13:10:19;;;;;;;2.72;0.10;;;20.00;79.10;;;;;;5036948;28;20496;-74
2022/05/25 13:12:52;;;;;;;2.08;0.08;;;19.40;80.50;;;;;;5035937;28;20033;-74
2022/05/25 13:15:17;;;;;;;1.90;0.00;;;19.00;84.20;;;;;;5036203;28;20544;-74
2022/05/25 13:17:59;;;;;;;5.93;0.52;;;18.80;87.10;;;;;;5036062;28;20064;-74
2022/05/25 13:20:27;;;;;;;0.88;0.10;;;18.90;87.00;;;;;;5035822;28;20025;-74
2022/05/25 13:23:02;;;;;;;2.80;0.20;;;18.90;90.60;;;;;;5036191;28;20025;-76
2022/05/25 13:25:46;;;;;;;3.45;0.45;;;18.90;90.50;;;;;;5037263;28;20028;-76
2022/05/25 13:28:19;;;;;;;0.85;0.00;;;18.90;88.40;;;;;;5036450;28;20492;-76
2022/05/25 13:30:55;;;;;;;2.42;0.00;;;18.90;91.80;;;;;;5037241;28;20025;-76
2022/05/25 13:33:22;;;;;;;3.35;0.00;;;18.90;88.10;;;;;;5037522;28;20074;-76
2022/05/25 13:36:16;;;;;;;3.10;0.00;;;18.90;90.50;;;;;;5037874;28;20435;-77
2022/05/25 13:39:07;;;;;;;6.00;0.10;;;18.70;89.40;;;;;;5037556;28;20396;-76
2022/05/25 13:41:41;;;;;;;1.50;0.00;;;18.50;90.40;;;;;;5037740;28;20064;-77